Time;durP1;ratioP1;P1;durP2;ratioP2;P2;SDS_P1;SDS_P2;PMS_P1;PMS_P2;Temp;Humidity;BMP_temperature;BMP_pressure;BME280_temperature;BME280_humidity;BME280_pressure;Samples;Min_cycle;Max_cycle;Signal;HPM_P1;HPM_P2
2021/06/21 00:00:35;;;;;;;;;;;17.80;99.90;;;;;;6189738;23;20313;-80
2021/06/21 00:03:03;;;;;;;;;;;17.80;99.90;;;;;;6165638;23;19951;-81
2021/06/21 00:05:36;;;;;;;;;;;17.80;99.90;;;;;;6214323;23;20403;-81
2021/06/21 00:08:04;;;;;;;;;;;17.80;99.90;;;;;;6163723;23;19920;-80
2021/06/21 00:10:32;;;;;;;;;;;17.90;99.90;;;;;;6188996;23;19927;-81
2021/06/21 00:13:04;;;;;;;;;;;18.00;99.90;;;;;;6190369;23;19919;-81
2021/06/21 00:15:32;;;;;;;;;;;18.00;99.90;;;;;;6215064;23;19920;-81
2021/06/21 00:18:00;;;;;;;;;;;18.00;99.90;;;;;;6190840;23;19920;-80
2021/06/21 00:20:27;;;;;;;;;;;18.10;99.90;;;;;;6215416;23;19936;-81
2021/06/21 00:22:55;;;;;;;;;;;18.10;99.90;;;;;;6165879;23;20003;-81
2021/06/21 00:25:28;;;;;;;;;;;18.10;99.90;;;;;;6190752;23;19920;-81
2021/06/21 00:27:56;;;;;;;;;;;18.20;99.90;;;;;;6190963;23;20401;-81
2021/06/21 00:33:12;;;;;;;;;;;18.30;99.90;;;;;;6244533;22;20005;-77
2021/06/21 00:35:44;;;;;;;;;;;18.30;99.90;;;;;;6180757;23;19975;-78
2021/06/21 00:38:16;;;;;;;;;;;18.40;99.90;;;;;;6136891;23;20406;-77
2021/06/21 00:40:47;;;;;;;;;;;18.40;99.90;;;;;;6160279;23;19925;-77
2021/06/21 00:43:14;;;;;;;;;;;18.40;99.90;;;;;;6135525;23;20233;-77
2021/06/21 00:45:46;;;;;;;;;;;18.40;99.90;;;;;;6136711;23;20003;-77
2021/06/21 00:48:17;;;;;;;;;;;18.40;99.90;;;;;;6160341;23;20002;-78
2021/06/21 00:50:49;;;;;;;;;;;18.40;99.90;;;;;;6136548;23;20011;-77
2021/06/21 00:53:16;;;;;;;;;;;18.40;99.90;;;;;;6135423;23;19974;-77
2021/06/21 00:55:48;;;;;;;;;;;18.40;99.90;;;;;;6137011;23;19964;-77
2021/06/21 00:58:20;;;;;;;;;;;18.30;99.90;;;;;;6136772;23;19948;-78
2021/06/21 01:00:46;;;;;;;;;;;18.10;99.90;;;;;;6186092;23;19921;-77
2021/06/21 01:03:13;;;;;;;;;;;17.90;99.90;;;;;;6134796;23;19931;-77
2021/06/21 01:05:40;;;;;;;;;;;17.80;99.90;;;;;;6134956;23;19920;-78
2021/06/21 01:08:07;;;;;;;;;;;17.80;99.90;;;;;;6160468;23;19955;-77
2021/06/21 01:10:40;;;;;;;;;;;17.70;99.90;;;;;;6160041;23;20284;-77
2021/06/21 01:13:21;;;;;;;;;;;17.60;99.90;;;;;;6159706;23;19927;-77
2021/06/21 01:16:12;;;;;;;;;;;17.60;99.90;;;;;;6159602;23;20407;-77
2021/06/21 01:18:54;;;;;;;;;;;17.50;99.90;;;;;;6158753;23;19924;-77
2021/06/21 01:21:45;;;;;;;;;;;17.40;99.90;;;;;;6159065;23;20392;-77
2021/06/21 01:24:39;;;;;;;;;;;17.40;99.90;;;;;;6135803;23;19927;-77
2021/06/21 01:27:20;;;;;;;;;;;17.40;99.90;;;;;;6135766;23;19971;-77
2021/06/21 01:30:13;;;;;;;;;;;17.50;99.90;;;;;;6159716;23;20300;-77
2021/06/21 01:32:53;;;;;;;;;;;17.50;99.90;;;;;;6157640;23;19932;-77
2021/06/21 01:35:31;;;;;;;;;;;17.60;99.90;;;;;;6175075;23;19974;-77
2021/06/21 01:38:26;;;;;;;;;;;17.60;99.90;;;;;;6160717;23;20396;-77
2021/06/21 01:40:59;;;;;;;;;;;17.70;99.90;;;;;;6175417;23;20397;-78
2021/06/21 01:43:34;;;;;;;;;;;17.70;99.90;;;;;;6184547;23;20372;-77
2021/06/21 01:46:08;;;;;;;;;;;17.80;99.90;;;;;;6183728;23;20294;-77
2021/06/21 01:48:41;;;;;;;;;;;17.90;99.90;;;;;;6184461;23;19967;-78
2021/06/21 01:51:14;;;;;;;;;;;18.00;99.90;;;;;;6185710;23;19963;-78
2021/06/21 01:53:40;;;;;;;;;;;18.00;99.90;;;;;;6159355;23;19920;-77
2021/06/21 01:56:14;;;;;;;;;;;18.10;99.90;;;;;;6159454;23;20261;-77
2021/06/21 01:58:47;;;;;;;;;;;18.10;99.90;;;;;;6160523;23;19924;-77
2021/06/21 02:01:17;;;;;;;;;;;18.10;99.90;;;;;;6159332;23;19967;-77
2021/06/21 02:03:53;;;;;;;;;;;18.10;99.90;;;;;;6160553;23;20345;-77
2021/06/21 02:06:21;;;;;;;;;;;18.00;99.90;;;;;;6184246;23;20304;-78
2021/06/21 02:08:54;;;;;;;;;;;17.90;99.90;;;;;;6160985;23;20289;-77
2021/06/21 02:11:21;;;;;;;;;;;17.90;99.90;;;;;;6184054;23;19920;-77
2021/06/21 02:13:53;;;;;;;;;;;17.90;99.90;;;;;;6183781;23;20294;-77
2021/06/21 02:16:20;;;;;;;;;;;17.90;99.90;;;;;;6159547;23;19920;-77
2021/06/21 02:18:47;;;;;;;;;;;18.00;99.90;;;;;;6183763;23;19920;-78
2021/06/21 02:21:20;;;;;;;;;;;18.00;99.90;;;;;;6183358;23;19920;-77
2021/06/21 02:23:47;;;;;;;;;;;18.00;99.90;;;;;;6158620;23;20003;-78
2021/06/21 02:26:14;;;;;;;;;;;18.10;99.90;;;;;;6158798;23;20007;-78
2021/06/21 02:28:46;;;;;;;;;;;18.10;99.90;;;;;;6159746;23;19924;-77
2021/06/21 02:31:19;;;;;;;;;;;18.10;99.90;;;;;;6159181;23;19920;-77
2021/06/21 02:33:51;;;;;;;;;;;18.10;99.90;;;;;;6161123;23;19926;-77
2021/06/21 02:36:17;;;;;;;;;;;18.10;99.90;;;;;;6163814;23;20285;-77
2021/06/21 02:38:44;;;;;;;;;;;18.00;99.90;;;;;;6163693;23;19954;-78
2021/06/21 02:41:11;;;;;;;;;;;18.00;99.90;;;;;;6163361;23;20419;-77
2021/06/21 02:43:42;;;;;;;;;;;18.00;99.90;;;;;;6188137;23;19920;-77
2021/06/21 02:46:14;;;;;;;;;;;18.00;99.90;;;;;;6164641;23;20344;-78
2021/06/21 02:48:41;;;;;;;;;;;17.90;99.90;;;;;;6188330;23;19966;-77
2021/06/21 02:51:15;;;;;;;;;;;17.90;99.90;;;;;;6164400;23;19920;-77
2021/06/21 02:53:59;;;;;;;;;;;17.90;99.90;;;;;;6163398;23;20295;-77
2021/06/21 02:56:29;;;;;;;;;;;17.80;99.90;;;;;;6163444;23;20417;-77
2021/06/21 02:59:00;;;;;;;;;;;17.90;99.90;;;;;;6163393;23;19951;-77
2021/06/21 03:01:27;;;;;;;;;;;17.80;99.90;;;;;;6187811;23;19955;-78
2021/06/21 03:03:59;;;;;;;;;;;17.80;99.90;;;;;;6187980;23;20237;-77
2021/06/21 03:06:27;;;;;;;;;;;17.80;99.90;;;;;;6188403;23;19955;-77
2021/06/21 03:08:54;;;;;;;;;;;17.80;99.90;;;;;;6188231;23;19919;-78
2021/06/21 03:11:26;;;;;;;;;;;17.70;99.90;;;;;;6187557;23;19931;-78
2021/06/21 03:13:54;;;;;;;;;;;17.60;99.90;;;;;;6163162;23;19947;-77
2021/06/21 03:16:22;;;;;;;;;;;17.50;99.90;;;;;;6163238;23;20007;-78
2021/06/21 03:18:55;;;;;;;;;;;17.40;99.90;;;;;;6189519;23;20011;-77
2021/06/21 03:21:22;;;;;;;;;;;17.30;99.90;;;;;;6187700;23;20002;-77
2021/06/21 03:23:53;;;;;;;;;;;17.20;99.90;;;;;;6163344;23;20309;-77
2021/06/21 03:26:26;;;;;;;;;;;17.30;99.90;;;;;;6189814;23;20022;-77
2021/06/21 03:28:53;;;;;;;;;;;17.30;99.90;;;;;;6165154;23;19959;-77
2021/06/21 03:31:20;;;;;;;;;;;17.20;99.90;;;;;;6189270;23;19955;-77
2021/06/21 03:33:52;;;;;;;;;;;17.30;99.90;;;;;;6166154;23;19920;-77
2021/06/21 03:36:19;;;;;;;;;;;17.30;99.90;;;;;;6168990;23;19919;-79
2021/06/21 03:38:50;;;;;;;;;;;17.20;99.90;;;;;;6166137;23;19924;-77
2021/06/21 03:41:17;;;;;;;;;;;17.20;99.90;;;;;;6164362;23;19955;-77
2021/06/21 03:43:49;;;;;;;;;;;17.20;99.90;;;;;;6166590;23;19942;-77
2021/06/21 03:46:20;;;;;;;;;;;17.30;99.90;;;;;;6165558;23;19998;-77
2021/06/21 03:48:47;;;;;;;;;;;17.30;99.90;;;;;;6215779;23;19947;-77
2021/06/21 03:51:19;;;;;;;;;;;17.30;99.90;;;;;;6164580;23;19924;-77
2021/06/21 03:53:45;;;;;;;;;;;17.40;99.90;;;;;;6163781;23;20295;-77
2021/06/21 03:56:12;;;;;;;;;;;17.40;99.90;;;;;;6163679;23;19974;-77
2021/06/21 03:58:47;;;;;;;;;;;17.40;99.90;;;;;;6190013;23;20011;-77
2021/06/21 04:01:13;;;;;;;;;;;17.30;99.90;;;;;;6188316;23;20006;-78
2021/06/21 04:03:40;;;;;;;;;;;17.40;99.90;;;;;;6188872;23;20003;-78
2021/06/21 04:06:12;;;;;;;;;;;17.30;99.90;;;;;;6190493;23;19920;-77
2021/06/21 04:08:38;;;;;;;;;;;17.20;99.90;;;;;;6164133;23;19923;-77
2021/06/21 04:11:06;;;;;;;;;;;17.20;99.90;;;;;;6163493;23;20003;-77
2021/06/21 04:13:38;;;;;;;;;;;17.20;99.90;;;;;;6189315;23;19927;-77
2021/06/21 04:16:09;;;;;;;;;;;17.20;99.90;;;;;;6215631;23;19924;-77
2021/06/21 04:18:36;;;;;;;;;;;17.20;99.90;;;;;;6164676;23;19924;-77
2021/06/21 04:21:03;;;;;;;;;;;17.20;99.90;;;;;;6164481;23;19952;-77
2021/06/21 04:23:34;;;;;;;;;;;17.20;99.90;;;;;;6165899;23;19967;-80
2021/06/21 04:26:06;;;;;;;;;;;17.20;99.90;;;;;;6192162;23;19962;-77
2021/06/21 04:28:33;;;;;;;;;;;17.20;99.90;;;;;;6165162;23;19955;-79
2021/06/21 04:30:59;;;;;;;;;;;17.30;99.90;;;;;;6164632;23;20317;-78
2021/06/21 04:33:26;;;;;;;;;;;17.30;99.90;;;;;;6165037;23;19955;-77
2021/06/21 04:35:53;;;;;;;;;;;17.20;99.90;;;;;;6164713;23;19990;-77
2021/06/21 04:38:24;;;;;;;;;;;17.30;99.90;;;;;;6165432;23;20360;-77
2021/06/21 04:40:51;;;;;;;;;;;17.30;99.90;;;;;;6164700;23;19927;-77
2021/06/21 04:43:19;;;;;;;;;;;17.40;99.90;;;;;;6163807;23;19919;-78
2021/06/21 04:45:46;;;;;;;;;;;17.50;99.90;;;;;;6164501;23;19960;-77
2021/06/21 04:48:18;;;;;;;;;;;17.50;99.90;;;;;;6165149;23;20007;-77
2021/06/21 04:50:45;;;;;;;;;;;17.50;99.90;;;;;;6163421;23;19968;-79
2021/06/21 04:53:17;;;;;;;;;;;17.40;99.90;;;;;;6164302;23;20015;-78
2021/06/21 04:55:43;;;;;;;;;;;17.40;99.90;;;;;;6164035;23;19970;-77
2021/06/21 04:58:10;;;;;;;;;;;17.50;99.90;;;;;;6189184;23;19927;-77
2021/06/21 05:00:42;;;;;;;;;;;17.50;99.90;;;;;;6165463;23;19951;-78
2021/06/21 05:03:13;;;;;;;;;;;17.50;99.90;;;;;;6190043;23;19920;-78
2021/06/21 05:05:45;;;;;;;;;;;17.50;99.90;;;;;;6165367;23;20293;-77
2021/06/21 05:08:17;;;;;;;;;;;17.60;99.90;;;;;;6165503;23;20335;-77
2021/06/21 05:10:48;;;;;;;;;;;17.70;99.90;;;;;;6165315;23;19955;-78
2021/06/21 05:13:21;;;;;;;;;;;17.80;99.90;;;;;;6214000;23;19920;-78
2021/06/21 05:15:53;;;;;;;;;;;17.90;99.90;;;;;;6165466;23;19953;-77
2021/06/21 05:18:20;;;;;;;;;;;18.00;99.90;;;;;;6164195;23;20007;-77
2021/06/21 05:20:46;;;;;;;;;;;18.00;99.90;;;;;;6164161;23;19970;-78
2021/06/21 05:23:13;;;;;;;;;;;18.10;99.90;;;;;;6163626;23;19919;-77
2021/06/21 05:25:40;;;;;;;;;;;18.20;99.90;;;;;;6163741;23;20345;-77
2021/06/21 05:28:11;;;;;;;;;;;18.30;99.90;;;;;;6187219;23;19958;-77
2021/06/21 05:30:44;;;;;;;;;;;18.30;99.90;;;;;;6182536;23;19920;-77
2021/06/21 05:33:10;;;;;;;;;;;18.30;99.90;;;;;;6184498;23;20363;-77
2021/06/21 05:35:37;;;;;;;;;;;18.40;99.90;;;;;;6188036;23;19928;-79
2021/06/21 05:38:04;;;;;;;;;;;18.40;99.90;;;;;;6186343;23;19943;-77
2021/06/21 05:40:30;;;;;;;;;;;18.40;99.90;;;;;;6188922;23;19939;-77
2021/06/21 05:42:58;;;;;;;;;;;18.50;99.90;;;;;;6162447;23;19924;-77
2021/06/21 05:45:25;;;;;;;;;;;18.40;99.90;;;;;;6188662;23;19931;-77
2021/06/21 05:47:53;;;;;;;;;;;18.40;99.90;;;;;;6188244;23;20003;-79
2021/06/21 05:50:19;;;;;;;;;;;18.50;99.90;;;;;;6188322;23;20296;-77
2021/06/21 05:52:51;;;;;;;;;;;18.60;99.90;;;;;;6164294;23;19958;-77
2021/06/21 05:55:23;;;;;;;;;;;18.70;99.90;;;;;;6161888;23;20006;-78
2021/06/21 05:57:54;;;;;;;;;;;18.70;99.90;;;;;;6160502;23;20428;-77
2021/06/21 06:00:26;;;;;;;;;;;18.80;99.90;;;;;;6159782;23;19999;-78
2021/06/21 06:02:53;;;;;;;;;;;18.90;99.90;;;;;;6214132;23;19944;-77
2021/06/21 06:05:20;;;;;;;;;;;18.90;99.90;;;;;;6163080;23;20019;-77
2021/06/21 06:07:53;;;;;;;;;;;18.90;99.90;;;;;;6188711;23;20434;-77
2021/06/21 06:10:20;;;;;;;;;;;19.00;99.90;;;;;;6188379;23;20010;-78
2021/06/21 06:12:52;;;;;;;;;;;19.10;99.90;;;;;;6187036;23;20002;-78
2021/06/21 06:15:18;;;;;;;;;;;19.20;99.90;;;;;;6162918;23;19966;-78
2021/06/21 06:17:45;;;;;;;;;;;19.20;99.90;;;;;;6163669;23;19948;-77
2021/06/21 06:20:17;;;;;;;;;;;19.20;99.90;;;;;;6164316;23;19927;-77
2021/06/21 06:22:44;;;;;;;;;;;19.20;99.90;;;;;;6162555;23;20367;-78
2021/06/21 06:25:11;;;;;;;;;;;19.20;99.90;;;;;;6187907;23;20002;-77
2021/06/21 06:27:43;;;;;;;;;;;19.20;99.90;;;;;;6188779;23;20015;-77
2021/06/21 06:30:11;;;;;;;;;;;19.30;99.90;;;;;;6162948;23;20003;-77
2021/06/21 06:32:39;;;;;;;;;;;19.30;99.90;;;;;;6188156;23;19970;-77
2021/06/21 06:35:09;;;;;;;;;;;19.50;99.90;;;;;;6188818;23;19920;-78
2021/06/21 06:37:36;;;;;;;;;;;19.60;99.90;;;;;;6188908;23;20241;-77
2021/06/21 06:40:08;;;;;;;;;;;19.60;99.90;;;;;;6165099;23;19928;-77
2021/06/21 06:42:35;;;;;;;;;;;19.80;99.90;;;;;;6188036;23;19943;-77
2021/06/21 06:45:02;;;;;;;;;;;19.90;99.90;;;;;;6163362;23;19920;-77
2021/06/21 06:47:31;;;;;;;;;;;20.00;99.90;;;;;;6163552;23;20011;-77
2021/06/21 06:50:03;;;;;;;;;;;20.10;99.90;;;;;;6164394;23;19974;-77
2021/06/21 06:52:30;;;;;;;;;;;20.10;99.90;;;;;;6187387;23;20003;-79
2021/06/21 06:57:34;;;;;;;;;;;20.20;99.90;;;;;;6186245;23;19924;-77
2021/06/21 07:00:00;;;;;;;;;;;20.30;99.90;;;;;;6163077;23;19943;-78
2021/06/21 07:02:27;;;;;;;;;;;20.40;99.90;;;;;;6160780;23;19927;-78
2021/06/21 07:05:03;;;;;;;;;;;20.40;99.90;;;;;;6188774;23;20007;-77
2021/06/21 07:07:35;;;;;;;;;;;20.40;99.90;;;;;;6188335;23;20345;-78
2021/06/21 07:10:02;;;;;;;;;;;20.40;99.90;;;;;;6187336;23;19951;-78
2021/06/21 07:12:29;;;;;;;;;;;20.40;99.90;;;;;;6187903;23;19920;-77
2021/06/21 07:14:55;;;;;;;;;;;20.40;99.90;;;;;;6163015;23;20003;-79
2021/06/21 07:17:22;;;;;;;;;;;20.50;99.90;;;;;;6163261;23;19920;-77
2021/06/21 07:19:54;;;;;;;;;;;20.60;99.90;;;;;;6164157;23;19998;-78
2021/06/21 07:22:20;;;;;;;;;;;20.60;99.90;;;;;;6187268;23;20007;-77
2021/06/21 07:24:47;;;;;;;;;;;20.70;99.90;;;;;;6188154;23;19920;-77
2021/06/21 07:27:14;;;;;;;;;;;20.80;99.90;;;;;;6163524;23;19920;-77
2021/06/21 07:29:41;;;;;;;;;;;20.80;99.90;;;;;;6188310;23;19943;-77
2021/06/21 07:32:12;;;;;;;;;;;20.90;99.90;;;;;;6164181;23;20300;-78
2021/06/21 07:34:40;;;;;;;;;;;21.00;99.90;;;;;;6187985;23;19920;-77
2021/06/21 07:37:06;;;;;;;;;;;21.10;99.90;;;;;;6162909;23;19982;-79
2021/06/21 07:39:36;;;;;;;;;;;21.10;99.90;;;;;;6164090;23;19920;-77
2021/06/21 07:42:03;;;;;;;;;;;21.10;99.90;;;;;;6162267;23;19920;-77
2021/06/21 07:44:35;;;;;;;;;;;21.20;99.90;;;;;;6164150;23;19966;-78
2021/06/21 07:47:07;;;;;;;;;;;21.30;99.90;;;;;;6164154;23;19990;-77
2021/06/21 07:49:34;;;;;;;;;;;21.40;99.90;;;;;;6163280;23;19920;-78
2021/06/21 07:52:06;;;;;;;;;;;21.50;99.90;;;;;;6164030;23;20011;-78
2021/06/21 07:54:32;;;;;;;;;;;21.60;99.90;;;;;;6215632;23;19926;-77
2021/06/21 07:56:59;;;;;;;;;;;21.60;99.90;;;;;;6163281;23;19951;-78
2021/06/21 07:59:27;;;;;;;;;;;21.60;99.90;;;;;;6191059;23;19951;-79
2021/06/21 08:01:54;;;;;;;;;;;21.60;99.90;;;;;;6165220;23;19942;-80
2021/06/21 08:04:21;;;;;;;;;;;21.60;99.90;;;;;;6214399;23;20035;-78
2021/06/21 08:06:47;;;;;;;;;;;21.70;99.90;;;;;;6163153;23;20435;-77
2021/06/21 08:09:14;;;;;;;;;;;21.80;99.90;;;;;;6163212;23;20002;-77
2021/06/21 08:11:40;;;;;;;;;;;21.90;99.90;;;;;;6187559;23;20315;-78
2021/06/21 08:14:07;;;;;;;;;;;21.90;99.90;;;;;;6164474;23;19920;-77
2021/06/21 08:16:34;;;;;;;;;;;21.90;99.90;;;;;;6164739;23;19943;-77
2021/06/21 08:19:01;;;;;;;;;;;22.00;99.90;;;;;;6164814;23;19920;-77
2021/06/21 08:21:33;;;;;;;;;;;22.10;99.90;;;;;;6165735;23;19920;-77
2021/06/21 08:24:10;;;;;;;;;;;22.10;99.90;;;;;;6165650;23;19926;-77
2021/06/21 08:26:37;;;;;;;;;;;22.20;99.90;;;;;;6191969;23;19947;-79
2021/06/21 08:29:05;;;;;;;;;;;22.20;99.90;;;;;;6167271;23;20367;-80
2021/06/21 08:31:34;;;;;;;;;;;22.30;99.90;;;;;;6166487;23;20256;-82
2021/06/21 08:34:02;;;;;;;;;;;22.40;99.90;;;;;;6166318;23;19920;-80
2021/06/21 08:36:48;;;;;;;;;;;22.50;99.90;;;;;;6188858;23;19927;-80
2021/06/21 08:39:16;;;;;;;;;;;22.50;99.90;;;;;;6166333;23;19927;-79
2021/06/21 08:41:44;;;;;;;;;;;22.60;99.90;;;;;;6166539;23;19920;-80
2021/06/21 08:44:12;;;;;;;;;;;22.60;99.90;;;;;;6191016;23;20336;-80
2021/06/21 08:46:40;;;;;;;;;;;22.70;99.90;;;;;;6167085;23;20012;-80
2021/06/21 08:49:14;;;;;;;;;;;22.80;99.90;;;;;;6191732;23;19924;-81
2021/06/21 08:51:44;;;;;;;;;;;22.80;99.90;;;;;;6166720;23;19943;-80
2021/06/21 08:54:11;;;;;;;;;;;22.90;99.90;;;;;;6190759;23;19924;-79
2021/06/21 08:56:39;;;;;;;;;;;22.90;99.90;;;;;;6190217;23;19920;-80
2021/06/21 08:59:11;;;;;;;;;;;23.00;99.90;;;;;;6166335;23;19920;-80
2021/06/21 09:01:51;;;;;;;;;;;23.00;99.90;;;;;;6190886;23;19954;-80
2021/06/21 09:04:19;;;;;;;;;;;23.10;99.90;;;;;;6166760;23;19966;-80
2021/06/21 09:06:49;;;;;;;;;;;23.10;99.90;;;;;;6191298;23;19920;-80
2021/06/21 09:09:41;;;;;;;;;;;23.20;99.90;;;;;;6191762;23;19991;-82
2021/06/21 09:12:18;;;;;;;;;;;23.20;99.90;;;;;;6167613;23;19995;-80
2021/06/21 09:14:47;;;;;;;;;;;23.30;99.90;;;;;;6191304;23;19920;-80
2021/06/21 09:17:17;;;;;;;;;;;23.40;99.90;;;;;;6191402;23;19920;-80
2021/06/21 09:19:45;;;;;;;;;;;23.40;99.90;;;;;;6166779;23;19928;-80
2021/06/21 09:22:26;;;;;;;;;;;23.50;99.90;;;;;;6190383;23;19920;-79
2021/06/21 09:24:54;;;;;;;;;;;23.60;99.90;;;;;;6188666;23;20337;-79
2021/06/21 09:27:26;;;;;;;;;;;23.70;99.90;;;;;;6188778;23;19947;-78
2021/06/21 09:29:53;;;;;;;;;;;23.70;99.90;;;;;;6164716;23;19958;-77
2021/06/21 09:32:21;;;;;;;;;;;23.70;99.90;;;;;;6187292;23;20018;-79
2021/06/21 09:34:47;;;;;;;;;;;23.80;99.90;;;;;;6188179;23;19959;-78
2021/06/21 09:37:15;;;;;;;;;;;23.80;99.90;;;;;;6188560;23;19926;-78
2021/06/21 09:39:44;;;;;;;;;;;23.90;99.90;;;;;;6188770;23;19920;-79
2021/06/21 09:42:11;;;;;;;;;;;24.00;99.90;;;;;;6163431;23;19974;-78
2021/06/21 09:44:39;;;;;;;;;;;24.10;99.90;;;;;;6164072;23;19963;-78
2021/06/21 09:47:17;;;;;;;;;;;24.10;99.90;;;;;;6163796;23;19927;-78
2021/06/21 09:50:02;;;;;;;;;;;24.10;99.90;;;;;;6163354;23;20023;-78
2021/06/21 09:52:36;;;;;;;;;;;24.20;99.90;;;;;;6188137;23;20006;-78
2021/06/21 09:55:14;;;;;;;;;;;24.20;99.90;;;;;;6188278;23;20256;-78
2021/06/21 09:57:42;;;;;;;;;;;24.20;99.90;;;;;;6163752;23;19947;-78
2021/06/21 10:00:14;;;;;;;;;;;24.30;99.90;;;;;;6188743;23;20336;-79
2021/06/21 10:02:41;;;;;;;;;;;24.50;99.90;;;;;;6188381;23;19920;-79
2021/06/21 10:05:20;;;;;;;;;;;24.70;99.90;;;;;;6167761;23;20002;-79
2021/06/21 10:07:56;;;;;;;;;;;24.80;99.90;;;;;;6190359;23;20435;-79
2021/06/21 10:10:31;;;;;;;;;;;24.80;99.90;;;;;;6188656;23;19955;-79
2021/06/21 10:12:57;;;;;;;;;;;24.80;99.90;;;;;;6188256;23;19963;-79
2021/06/21 10:15:30;;;;;;;;;;;24.90;99.90;;;;;;6163605;23;19963;-79
2021/06/21 10:18:01;;;;;;;;;;;25.10;99.90;;;;;;6186757;23;19951;-80
2021/06/21 11:16:22;;;;;;;;;;;26.10;97.20;;;;;;6237672;23;19967;-80
2021/06/21 12:07:16;;;;;;;;;;;27.40;92.00;;;;;;6245898;23;19918;-80
2021/06/21 12:30:50;;;;;;;;;;;28.10;91.90;;;;;;6162177;23;19939;-80
2021/06/21 12:34:31;;;;;;;;;;;28.10;89.80;;;;;;6182506;23;19957;-82
2021/06/21 12:42:09;;;;;;;;;;;28.10;88.60;;;;;;6172989;23;19924;-83
2021/06/21 12:44:44;;;;;;;;;;;28.20;90.50;;;;;;6167462;23;19920;-85
2021/06/21 12:47:18;;;;;;;;;;;28.50;90.60;;;;;;6168680;23;20407;-86
2021/06/21 12:49:45;;;;;;;;;;;28.60;88.80;;;;;;6167788;23;19948;-84
2021/06/21 12:52:18;;;;;;;;;;;28.70;87.10;;;;;;6177060;23;19927;-84
2021/06/21 12:54:47;;;;;;;;;;;28.70;87.10;;;;;;6148661;23;19988;-84
2021/06/21 12:57:14;;;;;;;;;;;28.90;85.70;;;;;;6150023;23;19978;-84
2021/06/21 12:59:42;;;;;;;;;;;28.90;89.10;;;;;;6175949;23;20411;-84
2021/06/21 13:02:20;;;;;;;;;;;29.00;83.70;;;;;;6177196;23;19957;-84
2021/06/21 13:05:04;;;;;;;;;;;28.80;81.60;;;;;;6174050;23;19943;-83
2021/06/21 13:07:31;;;;;;;;;;;29.00;80.40;;;;;;6146761;23;19947;-83
2021/06/21 13:09:58;;;;;;;;;;;29.10;80.60;;;;;;6146367;23;19944;-85
2021/06/21 13:12:32;;;;;;;;;;;29.20;82.50;;;;;;6178580;23;19954;-86
2021/06/21 13:15:17;;;;;;;;;;;29.20;77.80;;;;;;6175735;23;19920;-86
2021/06/21 13:17:48;;;;;;;;;;;29.20;76.10;;;;;;6177124;23;19935;-86
2021/06/21 13:20:21;;;;;;;;;;;29.20;78.80;;;;;;6177288;23;20316;-88
2021/06/21 13:22:49;;;;;;;;;;;29.30;79.90;;;;;;6145689;23;19920;-86
2021/06/21 13:25:32;;;;;;;;;;;29.60;75.90;;;;;;6173985;23;19962;-86
2021/06/21 13:27:59;;;;;;;;;;;29.80;74.80;;;;;;6174972;23;19920;-85
2021/06/21 13:30:33;;;;;;;;;;;29.90;75.60;;;;;;6176679;23;19920;-85
2021/06/21 13:33:11;;;;;;;;;;;30.30;80.20;;;;;;6175797;23;20055;-84
2021/06/21 13:35:39;;;;;;;;;;;30.40;75.70;;;;;;6173462;23;19927;-85
2021/06/21 13:38:15;;;;;;;;;;;30.50;76.30;;;;;;6174689;23;19971;-85
2021/06/21 13:40:42;;;;;;;;;;;30.70;74.10;;;;;;6172833;23;20364;-84
2021/06/21 13:43:09;;;;;;;;;;;30.90;70.80;;;;;;6173023;23;19921;-85
2021/06/21 13:45:44;;;;;;;;;;;31.10;69.70;;;;;;6173367;23;19924;-85
2021/06/21 13:48:23;;;;;;;;;;;30.70;65.50;;;;;;6176391;23;19920;-85
2021/06/21 13:50:52;;;;;;;;;;;30.70;66.40;;;;;;6198737;23;19971;-85
2021/06/21 13:53:27;;;;;;;;;;;30.70;68.50;;;;;;6172480;23;20330;-82
2021/06/21 13:55:58;;;;;;;;;;;30.60;65.80;;;;;;6172118;23;19948;-82
2021/06/21 13:58:32;;;;;;;;;;;30.70;66.10;;;;;;6170092;23;19920;-83
2021/06/21 14:01:09;;;;;;;;;;;30.70;65.30;;;;;;6170806;23;19935;-83
2021/06/21 14:03:42;;;;;;;;;;;30.90;65.70;;;;;;6171195;23;20380;-83
2021/06/21 14:06:10;;;;;;;;;;;31.10;64.20;;;;;;6194906;23;19920;-82
2021/06/21 14:08:37;;;;;;;;;;;31.50;63.60;;;;;;6170828;23;19927;-82
2021/06/21 14:11:06;;;;;;;;;;;31.60;60.50;;;;;;6170642;23;19920;-82
2021/06/21 14:13:35;;;;;;;;;;;31.70;58.30;;;;;;6171101;23;19920;-82
2021/06/21 14:16:12;;;;;;;;;;;31.60;60.10;;;;;;6165944;23;19978;-82
2021/06/21 14:18:44;;;;;;;;;;;31.50;60.40;;;;;;6169330;23;19927;-83
2021/06/21 14:21:16;;;;;;;;;;;31.40;60.70;;;;;;6170013;23;19931;-82
2021/06/21 14:23:44;;;;;;;;;;;31.50;61.50;;;;;;6169854;23;19940;-82
2021/06/21 14:26:11;;;;;;;;;;;31.60;60.10;;;;;;6194535;23;20346;-82
2021/06/21 14:28:42;;;;;;;;;;;31.70;61.10;;;;;;6171970;23;19958;-82
2021/06/21 14:31:09;;;;;;;;;;;31.70;57.20;;;;;;6195382;23;20420;-81
2021/06/21 14:33:36;;;;;;;;;;;31.40;57.20;;;;;;6170264;23;19924;-82
2021/06/21 14:36:09;;;;;;;;;;;31.50;56.30;;;;;;6171764;23;19943;-82
2021/06/21 14:38:36;;;;;;;;;;;31.60;57.00;;;;;;6171008;23;19944;-82
2021/06/21 14:41:03;;;;;;;;;;;31.70;56.30;;;;;;6169930;23;19966;-82
2021/06/21 14:43:30;;;;;;;;;;;31.70;56.40;;;;;;6170819;23;19920;-82
2021/06/21 14:45:57;;;;;;;;;;;31.70;56.10;;;;;;6170453;23;19927;-82
2021/06/21 14:48:24;;;;;;;;;;;31.90;57.00;;;;;;6170521;23;19923;-82
2021/06/21 14:50:51;;;;;;;;;;;32.30;56.40;;;;;;6171904;23;19986;-82
2021/06/21 14:53:21;;;;;;;;;;;32.80;54.10;;;;;;6171038;23;19920;-82
2021/06/21 14:55:48;;;;;;;;;;;32.90;52.10;;;;;;6197231;23;19927;-82
2021/06/21 14:58:15;;;;;;;;;;;33.00;53.40;;;;;;6172397;23;19920;-82
2021/06/21 15:00:42;;;;;;;;;;;33.20;51.30;;;;;;6172252;23;19924;-82
2021/06/21 15:03:14;;;;;;;;;;;33.40;51.70;;;;;;6171580;23;19920;-83
2021/06/21 15:05:44;;;;;;;;;;;33.50;52.70;;;;;;6197782;23;19972;-85
2021/06/21 15:08:16;;;;;;;;;;;33.80;49.80;;;;;;6170800;23;19969;-83
2021/06/21 15:10:48;;;;;;;;;;;33.70;50.40;;;;;;6168165;23;20365;-84
2021/06/21 15:13:19;;;;;;;;;;;33.80;50.80;;;;;;6168618;23;19920;-83
2021/06/21 15:15:46;;;;;;;;;;;34.10;51.00;;;;;;6166049;23;19924;-81
2021/06/21 15:18:16;;;;;;;;;;;33.90;52.70;;;;;;6166113;23;20431;-83
2021/06/21 15:20:43;;;;;;;;;;;33.90;54.10;;;;;;6190458;23;20329;-83
2021/06/21 15:23:13;;;;;;;;;;;34.00;54.20;;;;;;6166715;23;19920;-83
2021/06/21 15:25:39;;;;;;;;;;;34.00;51.60;;;;;;6189250;23;19920;-83
2021/06/21 15:28:06;;;;;;;;;;;34.10;53.50;;;;;;6191228;23;19928;-84
2021/06/21 15:30:33;;;;;;;;;;;34.40;51.80;;;;;;6166751;23;19920;-83
2021/06/21 15:33:00;;;;;;;;;;;34.40;48.80;;;;;;6173531;23;19979;-83
2021/06/21 15:35:32;;;;;;;;;;;34.50;50.50;;;;;;6176083;23;19924;-83
2021/06/21 15:38:00;;;;;;;;;;;34.60;52.00;;;;;;6199517;23;19926;-83
2021/06/21 15:40:27;;;;;;;;;;;34.50;52.70;;;;;;6174324;23;19924;-84
2021/06/21 15:42:55;;;;;;;;;;;34.60;52.40;;;;;;6173810;23;19928;-83
2021/06/21 15:45:24;;;;;;;;;;;34.40;50.70;;;;;;6197434;23;19924;-83
2021/06/21 15:47:50;;;;;;;;;;;34.20;51.30;;;;;;6168524;23;19924;-83
2021/06/21 15:50:18;;;;;;;;;;;34.30;52.90;;;;;;6195274;23;19936;-83
2021/06/21 15:52:46;;;;;;;;;;;34.20;51.70;;;;;;6169759;23;19921;-83
2021/06/21 15:55:15;;;;;;;;;;;34.30;52.70;;;;;;6169723;23;19925;-83
2021/06/21 15:57:47;;;;;;;;;;;34.40;52.00;;;;;;6169163;23;19924;-84
2021/06/21 16:00:14;;;;;;;;;;;34.20;51.20;;;;;;6171641;23;19927;-82
2021/06/21 16:02:41;;;;;;;;;;;33.90;52.20;;;;;;6189151;23;19939;-82
2021/06/21 16:05:08;;;;;;;;;;;33.60;52.60;;;;;;6166099;23;19921;-81
2021/06/21 16:07:35;;;;;;;;;;;33.10;53.50;;;;;;6162991;23;19951;-82
2021/06/21 16:10:04;;;;;;;;;;;33.30;53.60;;;;;;6187240;23;20265;-82
2021/06/21 16:12:30;;;;;;;;;;;33.60;51.80;;;;;;6161935;23;19947;-81
2021/06/21 16:15:03;;;;;;;;;;;33.80;51.20;;;;;;6188102;23;19955;-82
2021/06/21 16:17:35;;;;;;;;;;;34.00;50.50;;;;;;6188076;23;19951;-81
2021/06/21 16:20:08;;;;;;;;;;;34.20;51.30;;;;;;6165577;23;19924;-81
2021/06/21 16:22:35;;;;;;;;;;;34.40;51.30;;;;;;6164752;23;19963;-82
2021/06/21 16:25:03;;;;;;;;;;;34.60;51.40;;;;;;6139944;23;21514;-82
2021/06/21 16:27:31;;;;;;;;;;;34.60;50.60;;;;;;6189643;23;19927;-82
2021/06/21 16:29:58;;;;;;;;;;;34.80;51.80;;;;;;6193352;23;19920;-82
2021/06/21 16:32:26;;;;;;;;;;;34.60;49.40;;;;;;6192876;23;19920;-82
2021/06/21 16:34:53;;;;;;;;;;;34.70;49.70;;;;;;6195945;23;19930;-79
2021/06/21 16:37:27;;;;;;;;;;;34.80;50.50;;;;;;6170589;23;20441;-82
2021/06/21 16:39:59;;;;;;;;;;;35.10;50.30;;;;;;6170908;23;19921;-80
2021/06/21 16:42:29;;;;;;;;;;;35.20;48.60;;;;;;6169182;23;19928;-80
2021/06/21 16:44:56;;;;;;;;;;;35.30;47.90;;;;;;6194655;23;19921;-80
2021/06/21 16:47:40;;;;;;;;;;;35.20;48.50;;;;;;6194095;23;19936;-80
2021/06/21 16:50:09;;;;;;;;;;;34.60;47.60;;;;;;6166042;23;19948;-80